createdAt,value
2022-11-05T07:32:00.552Z,1.10
2022-11-05T07:36:57.659Z,1.10
2022-11-05T07:39:26.550Z,1.20
2022-11-05T10:08:53.659Z,0.68
2022-11-05T11:23:12.225Z,1.55
2022-11-05T11:25:47.464Z,1.20
2022-11-05T11:28:26.515Z,1.38
2022-11-05T11:31:05.781Z,1.77
2022-11-05T11:33:37.967Z,1.48
2022-11-05T11:36:07.885Z,2.50
2022-11-05T11:38:37.947Z,4.50
2022-11-05T11:41:24.576Z,4.60
2022-11-05T11:43:57.889Z,1.75
2022-11-05T12:17:16.545Z,1.60
2022-11-05T12:20:16.443Z,2.10
2022-11-05T12:23:29.154Z,2.20
2022-11-05T12:26:05.024Z,1.60
2022-11-05T12:29:12.288Z,1.70
2022-11-05T12:31:43.228Z,1.30
2022-11-05T15:31:27.660Z,2.40
2022-11-05T15:34:17.591Z,2.97
2022-11-05T15:36:54.016Z,3.07
2022-11-05T15:39:34.554Z,3.00
2022-11-05T15:42:06.861Z,3.00
2022-11-05T15:44:40.481Z,2.30
2022-11-05T15:47:22.007Z,2.20
2022-11-05T15:49:53.109Z,3.40
2022-11-05T15:52:27.103Z,2.27
2022-11-05T15:55:18.508Z,4.17
2022-11-05T15:57:51.010Z,2.37
2022-11-05T16:00:22.357Z,2.93
2022-11-05T16:02:56.067Z,1.90
2022-11-05T16:05:26.820Z,2.37
2022-11-05T16:07:59.639Z,2.50
2022-11-05T16:10:31.837Z,1.97
2022-11-05T16:13:29.909Z,2.07
2022-11-05T16:16:01.044Z,1.70
2022-11-05T16:34:27.350Z,2.75
2022-11-05T16:37:00.232Z,3.17
2022-11-05T16:39:30.511Z,2.30
2022-11-05T16:41:59.424Z,3.35
2022-11-05T16:44:28.141Z,3.83
2022-11-05T16:47:00.427Z,3.23
2022-11-05T16:49:29.120Z,2.53
2022-11-05T16:52:00.092Z,2.20
2022-11-05T16:54:30.263Z,1.40
2022-11-05T16:56:59.639Z,2.20
2022-11-05T16:59:28.641Z,2.83
2022-11-05T17:01:57.768Z,3.13
2022-11-05T17:04:26.882Z,2.80
2022-11-05T17:06:55.672Z,3.03
2022-11-05T17:09:24.397Z,2.90
2022-11-05T17:11:54.553Z,2.70
2022-11-05T17:14:23.280Z,3.77
2022-11-05T18:21:35.193Z,3.28
2022-11-05T18:24:04.623Z,2.67
2022-11-05T18:26:34.053Z,3.70
2022-11-05T18:29:03.467Z,2.60
2022-11-05T18:31:32.484Z,2.67
2022-11-05T18:34:01.776Z,3.23
2022-11-05T18:36:33.568Z,3.13
2022-11-05T18:39:03.751Z,2.27
2022-11-05T18:46:56.396Z,3.60
2022-11-05T18:49:18.778Z,3.53
2022-11-05T18:51:48.956Z,3.83
2022-11-05T18:54:17.900Z,4.33
2022-11-05T19:02:06.107Z,3.60
2022-11-05T19:04:36.638Z,4.43
2022-11-05T19:07:07.938Z,4.27
2022-11-05T19:17:04.488Z,3.83
2022-11-05T19:19:33.226Z,3.67
2022-11-05T19:22:01.894Z,4.23
2022-11-05T19:24:32.104Z,3.43
2022-11-05T19:27:00.944Z,3.10
2022-11-05T19:29:29.723Z,3.30
2022-11-05T19:31:58.575Z,2.20
2022-11-05T19:34:27.427Z,3.77
2022-11-05T19:36:56.141Z,4.53
2022-11-05T19:39:24.826Z,3.80
2022-11-05T19:41:59.014Z,4.33
2022-11-05T19:44:31.930Z,2.67
2022-11-05T19:47:00.658Z,3.20
2022-11-05T19:49:29.318Z,3.37
2022-11-05T19:51:58.054Z,4.33
2022-11-05T19:54:26.855Z,3.10
2022-11-05T19:56:56.944Z,5.43
2022-11-05T19:59:25.786Z,4.57
2022-11-05T20:01:54.654Z,5.07
2022-11-05T20:04:23.461Z,3.33
2022-11-05T20:06:52.109Z,3.97
2022-11-05T20:09:22.587Z,4.10
2022-11-05T20:16:53.045Z,3.60
2022-11-05T20:19:23.607Z,2.90
2022-11-05T20:44:26.472Z,4.03
